Time;durP1;ratioP1;P1;durP2;ratioP2;P2;SDS_P1;SDS_P2;PMS_P1;PMS_P2;Temp;Humidity;BMP_temperature;BMP_pressure;BME280_temperature;BME280_humidity;BME280_pressure;Samples;Min_cycle;Max_cycle;Signal;HPM_P1;HPM_P2
2020/12/31 00:01:51;;;;;;;8.60;6.43;;;5.90;51.10;;;;;;5014566;28;20435;-75
2020/12/31 00:04:16;;;;;;;10.20;6.77;;;5.90;50.80;;;;;;5012190;28;20476;-75
2020/12/31 00:06:42;;;;;;;11.60;7.10;;;5.90;52.10;;;;;;5011708;28;20874;-76
2020/12/31 00:09:07;;;;;;;9.50;6.90;;;5.90;52.70;;;;;;5010671;28;20387;-73
2020/12/31 00:11:33;;;;;;;10.57;7.23;;;5.80;53.90;;;;;;5013161;28;20400;-74
2020/12/31 00:13:58;;;;;;;11.67;7.70;;;5.70;55.00;;;;;;5006269;28;20866;-74
2020/12/31 00:16:24;;;;;;;9.53;7.53;;;5.80;55.60;;;;;;5000781;28;20880;-74
2020/12/31 00:18:50;;;;;;;9.55;7.07;;;5.80;55.60;;;;;;5030819;28;20433;-74
2020/12/31 00:21:15;;;;;;;10.27;7.77;;;5.80;54.00;;;;;;5030625;28;20422;-72
2020/12/31 00:23:41;;;;;;;9.50;7.43;;;5.80;55.80;;;;;;5007204;28;20489;-73
2020/12/31 00:26:07;;;;;;;11.20;7.17;;;6.00;55.40;;;;;;4991633;28;20385;-74
2020/12/31 00:28:32;;;;;;;10.13;7.30;;;5.80;56.00;;;;;;4991667;28;20401;-74
2020/12/31 00:30:58;;;;;;;13.57;7.77;;;5.80;55.60;;;;;;5004653;28;20406;-72
2020/12/31 00:33:23;;;;;;;11.70;8.33;;;5.70;57.80;;;;;;5017676;28;20389;-74
2020/12/31 00:35:55;;;;;;;13.13;7.65;;;5.70;58.30;;;;;;5011026;28;20775;-74
2020/12/31 00:38:22;;;;;;;11.18;8.55;;;5.60;58.60;;;;;;5011216;28;20802;-75
2020/12/31 00:40:47;;;;;;;10.43;8.40;;;5.60;59.40;;;;;;5010830;28;20762;-73
2020/12/31 00:43:13;;;;;;;12.00;8.40;;;5.60;60.50;;;;;;5010686;28;20389;-74
2020/12/31 00:45:38;;;;;;;12.15;7.78;;;5.60;60.00;;;;;;5013472;28;20828;-74
2020/12/31 00:48:04;;;;;;;11.32;8.60;;;5.60;59.10;;;;;;5010833;28;20396;-73
2020/12/31 00:50:30;;;;;;;10.40;7.60;;;5.50;61.00;;;;;;5010885;28;20395;-72
2020/12/31 00:52:55;;;;;;;11.35;7.82;;;5.40;62.40;;;;;;5011253;28;20440;-74
2020/12/31 00:55:21;;;;;;;9.93;7.83;;;5.40;63.40;;;;;;5014514;28;20484;-72
2020/12/31 00:57:46;;;;;;;9.03;7.30;;;5.40;63.00;;;;;;5014120;28;20393;-72
2020/12/31 01:00:13;;;;;;;10.43;7.43;;;5.50;61.40;;;;;;5020343;28;20470;-72
2020/12/31 01:02:39;;;;;;;11.35;7.93;;;5.50;61.30;;;;;;5033608;28;20398;-72
2020/12/31 01:05:08;;;;;;;11.15;7.05;;;5.50;61.70;;;;;;5031638;28;20745;-73
2020/12/31 01:07:34;;;;;;;10.52;7.70;;;5.50;62.00;;;;;;5017076;28;20389;-72
2020/12/31 01:10:00;;;;;;;11.77;8.10;;;5.50;62.70;;;;;;5012291;28;20389;-73
2020/12/31 01:12:28;;;;;;;11.13;7.60;;;5.50;61.90;;;;;;5012934;28;20399;-74
2020/12/31 01:14:53;;;;;;;11.93;8.95;;;5.40;63.90;;;;;;5022924;28;20398;-73
2020/12/31 01:17:19;;;;;;;15.00;9.87;;;5.30;64.60;;;;;;5030842;28;20444;-73
2020/12/31 01:19:44;;;;;;;14.03;9.07;;;5.30;66.00;;;;;;5029993;28;20398;-74
2020/12/31 01:22:10;;;;;;;13.90;9.33;;;5.30;65.90;;;;;;5030265;28;20411;-74
2020/12/31 01:24:35;;;;;;;14.20;9.97;;;5.40;65.50;;;;;;4992203;28;20405;-74
2020/12/31 01:27:04;;;;;;;16.00;10.13;;;5.40;66.10;;;;;;4991084;28;20402;-73
2020/12/31 01:29:29;;;;;;;16.67;10.83;;;5.40;65.30;;;;;;5012476;28;20459;-73
2020/12/31 01:31:55;;;;;;;15.50;10.00;;;5.30;65.30;;;;;;5031499;28;20430;-72
2020/12/31 01:34:20;;;;;;;13.15;9.25;;;5.30;64.40;;;;;;5013123;28;20870;-73
2020/12/31 01:36:46;;;;;;;15.52;10.90;;;5.40;64.20;;;;;;5018207;28;20400;-74
2020/12/31 01:39:11;;;;;;;11.80;9.60;;;5.50;63.40;;;;;;5033873;28;20760;-74
2020/12/31 01:41:37;;;;;;;16.92;10.50;;;5.50;62.50;;;;;;5034208;28;20430;-73
2020/12/31 01:44:09;;;;;;;13.83;10.20;;;5.40;63.30;;;;;;5002408;28;20473;-71
2020/12/31 01:46:38;;;;;;;17.75;10.68;;;5.30;63.10;;;;;;4995382;28;20445;-73
2020/12/31 01:49:06;;;;;;;15.27;10.50;;;5.40;63.00;;;;;;5006721;28;20427;-72
2020/12/31 01:51:33;;;;;;;14.97;10.03;;;5.30;63.30;;;;;;5016875;28;20443;-73
2020/12/31 01:53:59;;;;;;;15.67;9.80;;;5.40;61.60;;;;;;5017320;28;20400;-73
2020/12/31 01:56:30;;;;;;;15.63;10.90;;;5.40;62.10;;;;;;5016489;28;20819;-72
2020/12/31 01:58:56;;;;;;;15.10;11.10;;;5.30;62.50;;;;;;5015533;28;20397;-72
2020/12/31 02:01:22;;;;;;;15.15;10.68;;;5.40;62.10;;;;;;5016297;28;20463;-72
2020/12/31 02:03:49;;;;;;;15.55;10.95;;;5.40;60.60;;;;;;5015949;28;20435;-74
2020/12/31 02:06:15;;;;;;;13.13;10.10;;;5.30;61.60;;;;;;5016255;28;20724;-72
2020/12/31 02:08:44;;;;;;;13.95;10.35;;;5.40;59.90;;;;;;5016206;28;20427;-73
2020/12/31 02:11:11;;;;;;;13.48;10.10;;;5.40;60.00;;;;;;5016408;28;20451;-72
2020/12/31 02:13:36;;;;;;;13.38;10.40;;;5.50;59.50;;;;;;5031222;28;20453;-72
2020/12/31 02:16:02;;;;;;;15.77;10.68;;;5.50;58.70;;;;;;5017596;28;20387;-72
2020/12/31 02:18:28;;;;;;;16.13;10.02;;;5.50;59.70;;;;;;5035653;28;20414;-72
2020/12/31 02:20:54;;;;;;;15.33;10.10;;;5.40;59.10;;;;;;5035637;28;20406;-72
2020/12/31 02:23:20;;;;;;;13.55;9.40;;;5.60;58.30;;;;;;5017855;28;20441;-72
2020/12/31 02:25:45;;;;;;;14.63;10.20;;;5.60;58.00;;;;;;4997919;28;20387;-72
2020/12/31 02:28:11;;;;;;;16.40;10.25;;;5.60;57.90;;;;;;5033596;28;20835;-72
2020/12/31 02:30:37;;;;;;;14.18;10.50;;;5.60;57.60;;;;;;5020099;28;20397;-72
2020/12/31 02:33:02;;;;;;;12.98;9.85;;;5.60;58.30;;;;;;5015424;28;20388;-73
2020/12/31 02:35:28;;;;;;;13.83;10.30;;;5.70;57.30;;;;;;5015447;28;20396;-73
2020/12/31 02:37:53;;;;;;;13.67;9.70;;;5.60;58.60;;;;;;5014932;28;20804;-72
2020/12/31 02:40:19;;;;;;;14.30;9.70;;;5.60;58.30;;;;;;5017970;28;20401;-73
2020/12/31 02:42:44;;;;;;;15.57;9.67;;;5.60;59.00;;;;;;5016119;28;20545;-73
2020/12/31 02:45:10;;;;;;;12.33;9.40;;;5.60;58.30;;;;;;5014988;28;20392;-73
2020/12/31 02:47:39;;;;;;;11.73;8.93;;;5.60;58.30;;;;;;5013895;28;20385;-72
2020/12/31 02:50:04;;;;;;;14.63;9.52;;;5.70;58.00;;;;;;4994560;28;20387;-73
2020/12/31 02:52:30;;;;;;;11.87;9.23;;;5.60;59.20;;;;;;4995125;28;20429;-73
2020/12/31 02:54:55;;;;;;;13.90;8.40;;;5.70;59.60;;;;;;5003214;28;20404;-72
2020/12/31 02:57:21;;;;;;;10.70;7.90;;;5.70;58.60;;;;;;5014681;28;20475;-72
2020/12/31 02:59:46;;;;;;;13.73;8.53;;;5.60;58.80;;;;;;5016304;28;20440;-74
2020/12/31 03:02:12;;;;;;;10.00;8.27;;;5.50;60.90;;;;;;5014474;28;20491;-73
2020/12/31 03:04:37;;;;;;;10.90;8.50;;;5.50;61.40;;;;;;5014637;28;20797;-72
2020/12/31 03:07:03;;;;;;;9.50;7.73;;;5.40;62.50;;;;;;5014465;28;20433;-72
2020/12/31 03:09:28;;;;;;;15.75;8.40;;;5.40;62.50;;;;;;5018704;28;20474;-72
2020/12/31 03:11:54;;;;;;;14.77;8.70;;;5.40;62.80;;;;;;5034993;28;20411;-72
2020/12/31 03:14:19;;;;;;;10.00;7.88;;;5.40;62.00;;;;;;5033952;28;20415;-72
2020/12/31 03:16:45;;;;;;;13.27;8.02;;;5.30;62.80;;;;;;5032891;28;20764;-73
2020/12/31 03:19:10;;;;;;;10.18;8.25;;;5.30;63.60;;;;;;5031899;28;20434;-72
2020/12/31 03:21:36;;;;;;;9.60;7.80;;;5.20;65.60;;;;;;5031922;28;20403;-72
2020/12/31 03:24:02;;;;;;;12.25;7.65;;;5.30;63.70;;;;;;5018885;28;20391;-73
2020/12/31 03:26:27;;;;;;;14.03;8.27;;;5.20;64.10;;;;;;5031876;28;20387;-72
2020/12/31 03:28:53;;;;;;;11.87;8.00;;;5.20;65.00;;;;;;5031670;28;20872;-72
2020/12/31 03:31:18;;;;;;;12.90;8.10;;;5.20;65.80;;;;;;5031676;28;20737;-75
2020/12/31 03:33:44;;;;;;;14.33;8.47;;;5.30;64.30;;;;;;5016001;28;20400;-73
2020/12/31 03:36:09;;;;;;;13.00;8.43;;;5.30;65.60;;;;;;5011559;28;20380;-73
2020/12/31 03:38:35;;;;;;;11.10;8.00;;;5.20;65.60;;;;;;5013653;28;20404;-72
2020/12/31 03:41:00;;;;;;;10.80;8.50;;;5.20;65.70;;;;;;5011205;28;20413;-71
2020/12/31 03:43:26;;;;;;;11.43;7.97;;;5.20;67.00;;;;;;5011984;28;20416;-74
2020/12/31 03:45:51;;;;;;;10.02;7.55;;;5.20;66.20;;;;;;5012018;28;20381;-73
2020/12/31 03:48:17;;;;;;;11.07;7.63;;;5.20;66.20;;;;;;5011873;28;20389;-73
2020/12/31 03:50:42;;;;;;;11.43;7.70;;;5.20;66.90;;;;;;5011966;28;20435;-73
2020/12/31 03:53:08;;;;;;;10.25;7.43;;;5.30;66.00;;;;;;5022301;28;20422;-73
2020/12/31 03:55:33;;;;;;;9.17;7.10;;;5.30;67.00;;;;;;5034362;28;20452;-74
2020/12/31 03:58:00;;;;;;;13.50;8.60;;;5.30;67.10;;;;;;5032924;28;20402;-74
2020/12/31 04:00:25;;;;;;;9.90;7.50;;;5.30;67.40;;;;;;5033617;28;20383;-74
2020/12/31 04:02:51;;;;;;;9.40;7.20;;;5.20;67.80;;;;;;5016101;28;20773;-72
2020/12/31 04:05:16;;;;;;;8.50;7.07;;;5.20;67.80;;;;;;5033815;28;20383;-73
2020/12/31 04:07:42;;;;;;;10.03;7.17;;;5.20;68.20;;;;;;5028625;28;20752;-73
2020/12/31 04:10:07;;;;;;;10.32;7.53;;;5.10;69.70;;;;;;5032899;28;20423;-72
2020/12/31 04:12:33;;;;;;;11.40;7.50;;;5.20;69.20;;;;;;5033575;28;20394;-73
2020/12/31 04:14:59;;;;;;;9.50;6.80;;;5.20;67.60;;;;;;5033063;28;20383;-72
2020/12/31 04:17:24;;;;;;;10.20;7.90;;;5.10;67.70;;;;;;5033682;28;20391;-72
2020/12/31 04:19:50;;;;;;;13.30;8.23;;;5.00;69.20;;;;;;5032271;28;20391;-73
2020/12/31 04:22:15;;;;;;;11.68;7.85;;;5.00;70.30;;;;;;5026979;28;20426;-73
2020/12/31 04:24:41;;;;;;;11.40;8.70;;;5.00;68.60;;;;;;4991539;28;20397;-73
2020/12/31 04:27:06;;;;;;;11.00;8.53;;;4.90;70.80;;;;;;4991951;28;20393;-72
2020/12/31 04:29:32;;;;;;;12.67;9.13;;;4.90;71.60;;;;;;4992166;28;20469;-76
2020/12/31 04:31:57;;;;;;;10.77;8.47;;;4.90;72.30;;;;;;4992958;28;20897;-73
2020/12/31 04:34:23;;;;;;;12.87;9.53;;;4.80;73.50;;;;;;5011373;28;20400;-74
2020/12/31 04:36:49;;;;;;;11.50;9.50;;;4.80;74.30;;;;;;5013249;28;20869;-75
2020/12/31 04:39:14;;;;;;;13.57;10.65;;;4.90;74.30;;;;;;5010537;28;20427;-73
2020/12/31 04:41:40;;;;;;;16.40;11.27;;;4.80;75.50;;;;;;5010827;28;20416;-72
2020/12/31 04:44:06;;;;;;;15.65;10.75;;;4.90;76.70;;;;;;5010944;28;20414;-74
2020/12/31 04:46:33;;;;;;;14.90;11.10;;;4.80;76.50;;;;;;5011391;28;20391;-73
2020/12/31 04:49:20;;;;;;;17.23;11.83;;;4.80;74.60;;;;;;5011002;28;20904;-73
2020/12/31 04:51:48;;;;;;;15.55;11.32;;;4.80;75.80;;;;;;4998685;28;20395;-73
2020/12/31 04:54:14;;;;;;;15.40;10.70;;;4.80;76.10;;;;;;4998065;28;20390;-73
2020/12/31 04:56:40;;;;;;;14.50;10.82;;;4.80;76.20;;;;;;4996466;28;20422;-72
2020/12/31 04:59:07;;;;;;;15.43;10.13;;;4.80;78.50;;;;;;4999318;28;20574;-72
2020/12/31 05:01:33;;;;;;;13.52;9.98;;;4.90;75.40;;;;;;5000904;28;20407;-72
2020/12/31 05:03:59;;;;;;;13.93;10.40;;;4.80;75.30;;;;;;5007137;28;20411;-73
2020/12/31 05:06:27;;;;;;;14.13;10.03;;;5.00;73.90;;;;;;5019310;28;20881;-71
2020/12/31 05:08:53;;;;;;;16.30;10.80;;;4.80;75.50;;;;;;5015618;28;20389;-72
2020/12/31 05:11:19;;;;;;;14.10;10.02;;;4.80;76.80;;;;;;5022893;28;20424;-73
2020/12/31 05:13:50;;;;;;;14.30;10.70;;;4.80;78.30;;;;;;5025833;28;20389;-73
2020/12/31 05:16:29;;;;;;;15.45;10.38;;;4.90;77.00;;;;;;4999180;28;20408;-73
2020/12/31 05:18:58;;;;;;;15.60;10.73;;;4.80;78.60;;;;;;5021975;28;20456;-72
2020/12/31 05:21:23;;;;;;;14.35;10.43;;;4.80;78.90;;;;;;5033676;28;20464;-72
2020/12/31 05:23:49;;;;;;;14.93;10.37;;;4.70;79.50;;;;;;5003346;28;20750;-73
2020/12/31 05:26:29;;;;;;;15.50;10.95;;;4.70;79.50;;;;;;4996353;28;20960;-72
2020/12/31 05:28:56;;;;;;;15.48;11.23;;;4.70;79.50;;;;;;5013650;28;20731;-72
2020/12/31 05:31:21;;;;;;;16.60;10.55;;;4.70;81.10;;;;;;5013947;28;20770;-72
2020/12/31 05:33:47;;;;;;;16.25;11.00;;;4.60;81.20;;;;;;5014034;28;20431;-73
2020/12/31 05:36:17;;;;;;;14.90;10.93;;;4.70;81.70;;;;;;5014934;28;20924;-73
2020/12/31 05:39:02;;;;;;;16.63;11.73;;;4.70;81.20;;;;;;5014672;28;20416;-73
2020/12/31 05:41:29;;;;;;;16.25;11.25;;;4.70;82.00;;;;;;5014337;28;20400;-72
2020/12/31 05:43:57;;;;;;;15.15;10.23;;;4.70;82.30;;;;;;5014442;28;20932;-74
2020/12/31 05:46:24;;;;;;;13.40;10.25;;;4.80;81.50;;;;;;5013658;28;20442;-74
2020/12/31 05:49:00;;;;;;;11.70;9.02;;;4.80;79.90;;;;;;5022672;28;20389;-72
2020/12/31 05:51:31;;;;;;;14.70;9.90;;;4.80;78.30;;;;;;5013913;28;20395;-72
2020/12/31 05:54:06;;;;;;;14.00;9.70;;;4.80;78.90;;;;;;5014130;28;20392;-72
2020/12/31 05:56:37;;;;;;;11.82;8.98;;;4.80;79.00;;;;;;5014166;28;20435;-72
2020/12/31 05:59:07;;;;;;;15.50;10.80;;;4.90;78.60;;;;;;5013998;28;20865;-72
2020/12/31 06:01:37;;;;;;;11.77;9.52;;;4.80;80.00;;;;;;5019577;28;20739;-72
2020/12/31 06:04:31;;;;;;;10.13;8.52;;;4.70;81.20;;;;;;5033041;28;20411;-72
2020/12/31 06:07:05;;;;;;;12.38;8.63;;;4.70;82.80;;;;;;5022593;28;20485;-73
2020/12/31 06:09:33;;;;;;;9.98;7.80;;;4.80;80.60;;;;;;5012841;28;20373;-74
2020/12/31 06:12:03;;;;;;;9.13;7.43;;;4.90;80.70;;;;;;5013173;28;20393;-73
2020/12/31 06:14:30;;;;;;;8.35;6.75;;;4.90;78.50;;;;;;5013323;28;20389;-73
2020/12/31 06:16:57;;;;;;;10.00;7.30;;;4.90;77.20;;;;;;5027711;28;20927;-73
2020/12/31 06:19:33;;;;;;;8.57;6.70;;;4.90;77.90;;;;;;5029015;28;20430;-72
2020/12/31 06:22:01;;;;;;;9.73;6.90;;;4.90;78.10;;;;;;5013939;28;20571;-73
2020/12/31 06:24:46;;;;;;;7.72;6.25;;;4.90;77.50;;;;;;4997025;28;20394;-73
2020/12/31 06:27:14;;;;;;;10.03;6.63;;;5.00;76.00;;;;;;4993316;28;20554;-73
2020/12/31 06:29:51;;;;;;;8.13;6.40;;;5.10;74.50;;;;;;5000221;28;20418;-73
2020/12/31 06:32:28;;;;;;;7.07;6.38;;;5.00;75.40;;;;;;5012715;28;20866;-72
2020/12/31 06:35:08;;;;;;;6.25;5.63;;;4.90;75.00;;;;;;5012841;28;20427;-72
2020/12/31 06:37:35;;;;;;;5.38;4.80;;;4.90;76.40;;;;;;5012718;28;20396;-72
2020/12/31 06:40:23;;;;;;;7.40;5.90;;;4.90;72.90;;;;;;5012370;28;20392;-73
2020/12/31 06:43:03;;;;;;;5.63;5.07;;;4.90;73.80;;;;;;5012637;28;20389;-72
2020/12/31 06:45:35;;;;;;;6.28;5.50;;;4.90;71.20;;;;;;5026528;28;20469;-74
2020/12/31 06:48:00;;;;;;;6.60;6.00;;;4.90;72.90;;;;;;5029377;28;20464;-73
2020/12/31 06:51:05;;;;;;;6.10;5.60;;;4.80;75.00;;;;;;5012157;28;20468;-74
2020/12/31 06:53:30;;;;;;;8.82;6.28;;;4.90;72.20;;;;;;4994239;28;20447;-73
2020/12/31 06:55:58;;;;;;;6.50;5.33;;;4.80;74.30;;;;;;5012433;28;20389;-72
2020/12/31 06:58:24;;;;;;;7.97;5.13;;;4.80;74.50;;;;;;5014521;28;20399;-72
2020/12/31 07:00:51;;;;;;;5.75;5.15;;;4.80;73.60;;;;;;5012032;28;20417;-73
2020/12/31 07:03:40;;;;;;;7.50;5.32;;;4.70;76.00;;;;;;5012226;28;20423;-72
2020/12/31 07:06:20;;;;;;;5.75;5.15;;;4.70;77.70;;;;;;5012104;28;20392;-73
2020/12/31 07:09:09;;;;;;;7.05;5.18;;;4.70;76.30;;;;;;5030038;28;20453;-73
2020/12/31 07:11:40;;;;;;;5.73;5.13;;;4.70;77.70;;;;;;5029604;28;20425;-72
2020/12/31 07:14:17;;;;;;;7.05;5.13;;;4.80;75.40;;;;;;5028504;28;20783;-74
2020/12/31 07:17:09;;;;;;;8.27;6.20;;;4.80;74.30;;;;;;5031771;28;20823;-73
2020/12/31 07:19:43;;;;;;;8.38;6.80;;;4.90;75.50;;;;;;5026861;28;20387;-72
2020/12/31 07:22:15;;;;;;;9.50;7.80;;;4.90;74.00;;;;;;5031624;28;20776;-72
2020/12/31 07:25:11;;;;;;;9.70;7.65;;;4.80;75.30;;;;;;4992203;28;20383;-73
2020/12/31 07:27:42;;;;;;;11.80;8.60;;;4.70;75.60;;;;;;4991477;28;20403;-72
2020/12/31 07:30:07;;;;;;;9.90;7.63;;;4.60;78.00;;;;;;5016020;28;20405;-74
2020/12/31 07:32:59;;;;;;;12.83;8.43;;;4.70;77.60;;;;;;5011690;28;20474;-73
2020/12/31 07:35:38;;;;;;;10.65;8.00;;;4.60;76.90;;;;;;5021327;28;20503;-72
2020/12/31 07:38:21;;;;;;;11.13;8.32;;;4.50;78.40;;;;;;5020881;28;20381;-73
2020/12/31 07:40:52;;;;;;;10.10;7.40;;;4.50;77.70;;;;;;5019560;28;20462;-73
2020/12/31 07:43:19;;;;;;;11.32;7.90;;;4.60;77.90;;;;;;5034927;28;20453;-73
2020/12/31 07:46:00;;;;;;;12.82;8.38;;;4.50;78.60;;;;;;5021146;28;20385;-72
2020/12/31 07:48:27;;;;;;;10.60;7.05;;;4.50;80.30;;;;;;5020825;28;20395;-72
2020/12/31 07:50:54;;;;;;;7.70;6.40;;;4.60;79.10;;;;;;5030937;28;20468;-72
2020/12/31 07:53:20;;;;;;;9.02;6.07;;;4.60;77.90;;;;;;5038836;28;20395;-73
2020/12/31 07:55:53;;;;;;;7.95;6.70;;;4.60;75.10;;;;;;5018869;28;20398;-75
2020/12/31 07:58:20;;;;;;;8.60;6.60;;;4.60;75.60;;;;;;5033378;28;20397;-71
2020/12/31 08:00:59;;;;;;;7.10;6.07;;;4.60;74.40;;;;;;5018205;28;20408;-71
2020/12/31 08:03:25;;;;;;;7.75;6.00;;;4.40;76.00;;;;;;5016559;28;20384;-71
2020/12/31 08:06:04;;;;;;;9.07;6.50;;;4.40;77.00;;;;;;5016833;28;20387;-71
2020/12/31 08:08:30;;;;;;;8.00;6.50;;;4.40;78.50;;;;;;5012750;28;20393;-71
2020/12/31 08:10:56;;;;;;;6.32;5.72;;;4.50;78.00;;;;;;5019714;28;20431;-72
2020/12/31 08:13:22;;;;;;;8.13;6.15;;;4.50;77.90;;;;;;5021888;28;20399;-72
2020/12/31 08:15:53;;;;;;;7.40;6.20;;;4.60;77.30;;;;;;5019359;28;20885;-73
2020/12/31 08:18:19;;;;;;;8.00;6.25;;;4.50;76.20;;;;;;5016499;28;20427;-72
2020/12/31 08:20:47;;;;;;;9.40;7.00;;;4.50;76.60;;;;;;5011895;28;20413;-72
2020/12/31 08:23:26;;;;;;;9.85;6.60;;;4.50;76.30;;;;;;5010466;28;20393;-72
2020/12/31 08:25:54;;;;;;;6.35;5.75;;;4.60;75.30;;;;;;5011591;28;20616;-72
2020/12/31 08:28:21;;;;;;;9.07;7.20;;;4.60;74.70;;;;;;5010494;28;20707;-71
2020/12/31 08:30:47;;;;;;;9.43;7.37;;;4.50;75.90;;;;;;5011847;28;20491;-72
2020/12/31 08:33:12;;;;;;;7.90;7.00;;;4.50;77.30;;;;;;5013621;28;20485;-71
2020/12/31 08:35:43;;;;;;;9.68;7.50;;;4.60;77.10;;;;;;5010792;28;20517;-72
2020/12/31 08:38:16;;;;;;;9.07;7.53;;;4.60;75.50;;;;;;5024234;28;20431;-71
2020/12/31 08:40:43;;;;;;;9.88;7.57;;;4.60;76.00;;;;;;5017924;28;20514;-71
2020/12/31 08:43:25;;;;;;;9.80;7.47;;;4.80;74.30;;;;;;5030733;28;20452;-71
2020/12/31 08:45:56;;;;;;;8.45;7.10;;;4.70;73.80;;;;;;5025182;28;20403;-71
2020/12/31 08:48:30;;;;;;;10.00;7.38;;;4.70;74.00;;;;;;5033250;28;21016;-70
2020/12/31 08:51:08;;;;;;;8.63;7.15;;;4.70;73.80;;;;;;5017241;28;20405;-71
2020/12/31 08:53:50;;;;;;;10.30;7.85;;;4.70;74.50;;;;;;5017909;28;20484;-72
2020/12/31 08:56:17;;;;;;;10.65;8.10;;;4.70;73.80;;;;;;5013369;28;20403;-71
2020/12/31 08:58:42;;;;;;;11.20;8.70;;;4.70;74.70;;;;;;5013408;28;20913;-71
2020/12/31 09:01:24;;;;;;;10.00;8.30;;;4.70;73.90;;;;;;5029959;28;20519;-71
2020/12/31 09:03:50;;;;;;;11.25;8.23;;;4.70;73.50;;;;;;5037061;28;20397;-71
2020/12/31 09:06:24;;;;;;;13.75;8.80;;;4.80;72.30;;;;;;5033962;28;20511;-71
2020/12/31 09:08:50;;;;;;;11.25;8.60;;;4.80;71.90;;;;;;4993636;28;20763;-70
2020/12/31 09:11:24;;;;;;;10.70;8.25;;;4.80;72.40;;;;;;4991276;28;20494;-70
2020/12/31 09:13:50;;;;;;;10.70;8.25;;;4.90;70.60;;;;;;5012096;28;20395;-72
2020/12/31 09:16:15;;;;;;;11.60;8.60;;;4.90;70.30;;;;;;5016955;28;20412;-71
2020/12/31 09:18:42;;;;;;;14.30;9.20;;;5.00;68.60;;;;;;5019573;28;20469;-72
2020/12/31 09:21:08;;;;;;;11.48;8.40;;;5.00;69.10;;;;;;5012126;28;20479;-72
2020/12/31 09:23:34;;;;;;;14.02;8.93;;;4.90;69.10;;;;;;5018395;28;20395;-72
2020/12/31 09:26:00;;;;;;;11.80;8.30;;;5.10;68.80;;;;;;5010172;28;20434;-70
2020/12/31 09:28:26;;;;;;;12.07;9.10;;;5.10;69.00;;;;;;5017821;28;20391;-72
2020/12/31 09:30:53;;;;;;;11.55;9.20;;;5.20;66.90;;;;;;5018550;28;20872;-71
2020/12/31 09:33:21;;;;;;;10.45;8.38;;;5.10;66.70;;;;;;5012496;28;20454;-71
2020/12/31 09:35:46;;;;;;;12.65;9.10;;;5.30;67.20;;;;;;5012583;28;20736;-71
2020/12/31 09:38:12;;;;;;;11.70;8.93;;;5.20;65.60;;;;;;5028827;28;20391;-76
2020/12/31 09:40:39;;;;;;;12.50;9.20;;;5.30;65.70;;;;;;5028269;28;20386;-72
2020/12/31 09:43:05;;;;;;;13.13;9.20;;;5.30;66.20;;;;;;5015136;28;20415;-78
2020/12/31 09:45:32;;;;;;;11.70;8.85;;;5.30;66.20;;;;;;5013181;28;20391;-73
2020/12/31 09:47:58;;;;;;;11.82;9.30;;;5.40;63.70;;;;;;5009449;28;20395;-78
2020/12/31 09:50:24;;;;;;;13.73;8.85;;;5.50;62.10;;;;;;5013013;28;20455;-76
2020/12/31 09:52:50;;;;;;;12.07;9.20;;;5.50;63.20;;;;;;5010699;28;20406;-75
2020/12/31 09:55:15;;;;;;;11.77;9.30;;;5.50;64.00;;;;;;5024664;28;20866;-72
2020/12/31 09:57:41;;;;;;;11.40;9.07;;;5.40;64.20;;;;;;5021638;28;20408;-72
2020/12/31 10:00:08;;;;;;;13.45;9.48;;;5.50;63.50;;;;;;5023031;28;20399;-71
2020/12/31 10:02:33;;;;;;;12.05;9.60;;;5.60;64.90;;;;;;5021385;28;20412;-72
2020/12/31 10:04:59;;;;;;;10.53;8.63;;;5.70;62.70;;;;;;5018147;28;20890;-72
2020/12/31 10:07:25;;;;;;;12.55;8.77;;;5.70;61.60;;;;;;5012869;28;20475;-72
2020/12/31 10:09:51;;;;;;;13.90;10.00;;;5.80;61.10;;;;;;5012815;28;20395;-72
2020/12/31 10:12:16;;;;;;;13.70;9.63;;;5.70;62.00;;;;;;5019505;28;20399;-74
2020/12/31 10:14:43;;;;;;;13.70;9.27;;;5.70;62.30;;;;;;5013114;28;20415;-73
2020/12/31 10:17:09;;;;;;;10.32;8.82;;;5.70;62.90;;;;;;5000998;28;20407;-73
2020/12/31 10:19:35;;;;;;;10.97;8.70;;;5.70;63.40;;;;;;5032393;28;20876;-72
2020/12/31 10:22:02;;;;;;;11.43;9.07;;;5.60;63.30;;;;;;5012513;28;20467;-73
2020/12/31 10:24:27;;;;;;;11.63;9.37;;;5.50;65.60;;;;;;5027632;28;20485;-72
2020/12/31 10:26:53;;;;;;;10.52;8.30;;;5.60;64.40;;;;;;5015776;28;20817;-72
2020/12/31 10:29:19;;;;;;;11.43;9.10;;;5.70;63.70;;;;;;5013262;28;20459;-72
2020/12/31 10:31:49;;;;;;;11.93;9.40;;;5.60;63.80;;;;;;5012440;28;20380;-73
2020/12/31 10:34:15;;;;;;;11.95;9.05;;;5.60;65.90;;;;;;4993097;28;20394;-73
2020/12/31 10:36:40;;;;;;;12.07;9.33;;;5.70;65.60;;;;;;4993122;28;20387;-72
2020/12/31 10:39:06;;;;;;;12.30;9.40;;;5.70;64.40;;;;;;4992509;28;20391;-72
2020/12/31 10:41:32;;;;;;;10.43;8.43;;;5.60;64.90;;;;;;5017074;28;20467;-72
2020/12/31 10:43:58;;;;;;;14.45;9.75;;;5.60;65.40;;;;;;5012273;28;20761;-72
2020/12/31 10:46:26;;;;;;;14.13;9.50;;;5.60;65.80;;;;;;5011977;28;20734;-71
2020/12/31 10:48:52;;;;;;;11.32;8.40;;;5.60;66.20;;;;;;5020743;28;20453;-72
2020/12/31 10:51:17;;;;;;;13.60;9.57;;;5.70;65.30;;;;;;5016562;28;20458;-72
2020/12/31 10:53:43;;;;;;;14.18;9.65;;;5.70;66.60;;;;;;5015158;28;20405;-71
2020/12/31 10:56:09;;;;;;;11.93;9.07;;;5.80;64.70;;;;;;5011295;28;20456;-72
2020/12/31 10:58:36;;;;;;;11.05;9.30;;;5.70;64.90;;;;;;5020135;28;20403;-72
2020/12/31 11:01:03;;;;;;;14.00;9.80;;;5.80;65.70;;;;;;5010467;28;20459;-72
2020/12/31 11:03:28;;;;;;;12.52;9.52;;;5.90;64.50;;;;;;5011807;28;20429;-73
2020/12/31 11:05:54;;;;;;;12.20;9.30;;;5.90;63.80;;;;;;5010846;28;20496;-71
2020/12/31 11:08:19;;;;;;;12.75;9.70;;;5.80;63.70;;;;;;5031451;28;20390;-73
2020/12/31 11:10:47;;;;;;;12.80;9.40;;;5.80;64.20;;;;;;5012912;28;20393;-72
2020/12/31 11:13:13;;;;;;;12.90;9.80;;;5.80;63.40;;;;;;4993876;28;20417;-73
2020/12/31 11:15:39;;;;;;;10.93;8.83;;;5.80;65.90;;;;;;5011543;28;20455;-75
2020/12/31 11:18:05;;;;;;;10.93;8.60;;;5.80;64.90;;;;;;5012707;28;20415;-73
2020/12/31 11:20:31;;;;;;;10.95;9.48;;;5.80;63.60;;;;;;5015163;28;20870;-72
2020/12/31 11:22:56;;;;;;;10.60;8.23;;;5.70;64.30;;;;;;5016969;28;20528;-74
2020/12/31 11:25:22;;;;;;;8.85;7.90;;;5.80;63.60;;;;;;5017915;28;20417;-73
2020/12/31 11:27:47;;;;;;;9.13;7.10;;;5.80;64.20;;;;;;5018431;28;20393;-74
2020/12/31 11:30:13;;;;;;;8.53;6.47;;;5.80;62.40;;;;;;4998520;28;20476;-73
2020/12/31 11:32:39;;;;;;;8.70;7.33;;;5.80;61.00;;;;;;5011528;28;20403;-72
2020/12/31 11:35:05;;;;;;;9.68;7.40;;;5.70;63.40;;;;;;5011072;28;20464;-72
2020/12/31 11:37:32;;;;;;;8.57;7.10;;;5.70;62.90;;;;;;5011520;28;20892;-73
2020/12/31 11:39:58;;;;;;;11.05;7.85;;;5.60;63.90;;;;;;5011130;28;20435;-71
2020/12/31 11:42:23;;;;;;;7.70;6.83;;;5.60;64.60;;;;;;5011224;28;20401;-73
2020/12/31 11:44:49;;;;;;;10.57;7.07;;;5.80;62.60;;;;;;5011373;28;20397;-73
2020/12/31 11:47:14;;;;;;;9.10;7.00;;;5.70;62.90;;;;;;5011180;28;20465;-73
2020/12/31 11:49:40;;;;;;;9.15;7.53;;;5.80;62.00;;;;;;5010870;28;20447;-72
2020/12/31 11:52:05;;;;;;;7.60;6.80;;;5.90;62.30;;;;;;5011750;28;20397;-72
2020/12/31 11:54:31;;;;;;;7.80;7.10;;;5.90;61.60;;;;;;5011936;28;20397;-74
2020/12/31 11:56:56;;;;;;;9.13;7.70;;;5.80;61.40;;;;;;5011943;28;20763;-73
2020/12/31 11:59:22;;;;;;;9.43;7.13;;;6.00;61.70;;;;;;4993880;28;20778;-72
2020/12/31 12:01:51;;;;;;;12.65;8.63;;;5.90;61.90;;;;;;5011889;28;20436;-74
2020/12/31 12:04:18;;;;;;;8.77;7.60;;;5.80;64.30;;;;;;5012170;28;20444;-73
2020/12/31 12:06:54;;;;;;;8.80;7.90;;;5.70;65.30;;;;;;5011498;28;20496;-73
2020/12/31 12:09:21;;;;;;;7.80;7.00;;;5.60;66.30;;;;;;4994033;28;20396;-71
2020/12/31 12:11:47;;;;;;;10.07;7.25;;;5.60;66.00;;;;;;5011865;28;20415;-73
2020/12/31 12:14:12;;;;;;;7.63;6.82;;;5.60;62.90;;;;;;5011359;28;20384;-72
2020/12/31 12:16:40;;;;;;;10.55;7.72;;;5.50;64.90;;;;;;5010772;28;20419;-72
2020/12/31 12:19:06;;;;;;;9.25;7.40;;;5.60;65.20;;;;;;5009594;28;20391;-72
2020/12/31 12:21:32;;;;;;;8.50;7.10;;;5.60;64.40;;;;;;5010489;28;21028;-71
2020/12/31 12:23:57;;;;;;;7.15;6.45;;;5.50;65.20;;;;;;5011095;28;20468;-72
2020/12/31 12:26:31;;;;;;;7.28;6.57;;;5.50;64.50;;;;;;5010366;28;20387;-72
2020/12/31 12:28:56;;;;;;;7.40;6.60;;;5.60;64.50;;;;;;4993026;28;20403;-73
2020/12/31 12:31:22;;;;;;;8.02;6.90;;;5.50;64.90;;;;;;5010729;28;20765;-73
2020/12/31 12:33:47;;;;;;;7.72;6.90;;;5.40;67.20;;;;;;5010698;28;20460;-72
2020/12/31 12:36:13;;;;;;;6.70;6.00;;;5.40;67.30;;;;;;5010301;28;20465;-72
2020/12/31 12:38:38;;;;;;;10.40;7.20;;;5.40;67.00;;;;;;5011098;28;20400;-73
2020/12/31 12:41:04;;;;;;;8.83;7.13;;;5.50;68.20;;;;;;5011095;28;20423;-72
2020/12/31 12:43:29;;;;;;;8.10;7.10;;;5.50;65.10;;;;;;5011675;28;20443;-73
2020/12/31 12:45:55;;;;;;;8.37;7.47;;;5.50;66.90;;;;;;5010981;28;20413;-73
2020/12/31 12:48:20;;;;;;;9.60;6.70;;;5.50;66.90;;;;;;5011580;28;20439;-73
2020/12/31 12:50:46;;;;;;;9.03;7.50;;;5.50;65.90;;;;;;5010758;28;20395;-72
2020/12/31 12:53:11;;;;;;;9.13;7.10;;;5.40;66.60;;;;;;5010882;28;20392;-72